createdAt,value
2022-10-16T00:01:46.781Z,3.10
2022-10-16T00:04:15.519Z,1.43
2022-10-16T00:06:45.336Z,3.33
2022-10-16T00:09:13.488Z,3.93
2022-10-16T00:11:43.305Z,2.17
2022-10-16T00:14:16.316Z,3.60
2022-10-16T00:16:44.957Z,2.28
2022-10-16T00:19:13.879Z,1.38
2022-10-16T00:21:43.475Z,2.40
2022-10-16T00:24:13.568Z,1.20
2022-10-16T00:26:42.949Z,0.80
2022-10-16T00:29:11.407Z,1.03
2022-10-16T00:31:40.298Z,1.20
2022-10-16T00:34:08.858Z,1.33
2022-10-16T00:36:37.289Z,2.27
2022-10-16T00:39:06.820Z,1.13
2022-10-16T00:41:36.299Z,0.63
2022-10-16T00:44:46.391Z,2.23
2022-10-16T00:47:23.362Z,0.70
2022-10-16T00:49:54.064Z,0.90
2022-10-16T00:52:22.595Z,1.83
2022-10-16T00:54:54.626Z,0.80
2022-10-16T00:57:23.362Z,4.53
2022-10-16T00:59:54.051Z,1.95
2022-10-16T01:02:22.251Z,1.20
2022-10-16T01:04:54.191Z,1.63
2022-10-16T01:07:38.629Z,2.07
2022-10-16T01:10:20.841Z,0.80
2022-10-16T01:12:57.341Z,1.33
2022-10-16T01:15:36.180Z,2.50
2022-10-16T01:18:12.376Z,2.17
2022-10-16T01:20:53.357Z,3.30
2022-10-16T01:23:41.522Z,1.57
2022-10-16T01:26:39.676Z,1.60
2022-10-16T01:29:18.872Z,2.60
2022-10-16T01:31:57.044Z,2.57
2022-10-16T01:34:37.268Z,1.80
2022-10-16T01:37:17.287Z,1.23
2022-10-16T01:39:51.716Z,1.40
2022-10-16T01:42:26.555Z,1.87
2022-10-16T01:44:58.692Z,1.20
2022-10-16T01:47:29.695Z,1.30
2022-10-16T01:50:01.986Z,2.35
2022-10-16T01:52:31.700Z,1.63
2022-10-16T01:55:04.703Z,1.95
2022-10-16T01:57:35.962Z,0.65
2022-10-16T02:00:13.841Z,2.37
2022-10-16T02:02:47.067Z,3.30
2022-10-16T02:05:24.414Z,0.80
2022-10-16T02:07:52.830Z,0.87
2022-10-16T02:10:21.150Z,2.60
2022-10-16T02:12:58.302Z,1.27
2022-10-16T02:15:28.400Z,1.50
2022-10-16T02:17:56.459Z,2.40
2022-10-16T02:20:31.113Z,1.73
2022-10-16T02:23:00.646Z,0.90
2022-10-16T02:25:37.203Z,1.23
2022-10-16T02:28:14.565Z,1.57
2022-10-16T02:30:49.520Z,1.80
2022-10-16T02:33:21.398Z,1.85
2022-10-16T02:35:53.035Z,2.03
2022-10-16T02:38:23.412Z,1.23
2022-10-16T02:40:52.024Z,0.77
2022-10-16T02:43:21.706Z,1.40
2022-10-16T02:45:51.509Z,2.00
2022-10-16T02:48:19.740Z,1.83
2022-10-16T02:50:48.315Z,2.07
2022-10-16T02:53:16.378Z,2.67
2022-10-16T02:55:44.609Z,2.40
2022-10-16T02:58:12.715Z,1.67
2022-10-16T03:00:41.577Z,0.80
2022-10-16T03:03:11.533Z,1.20
2022-10-16T03:05:39.649Z,0.80
2022-10-16T03:08:07.840Z,1.23
2022-10-16T03:10:36.272Z,2.10
2022-10-16T03:13:04.560Z,0.80
2022-10-16T03:15:33.477Z,2.50
2022-10-16T03:18:02.771Z,2.20
2022-10-16T03:20:32.636Z,0.77
2022-10-16T03:23:00.729Z,2.20
2022-10-16T03:25:29.210Z,1.70
2022-10-16T03:27:57.297Z,1.83
2022-10-16T03:30:26.074Z,1.30
2022-10-16T03:32:55.160Z,0.67
2022-10-16T03:35:24.273Z,3.33
2022-10-16T03:37:53.864Z,2.10
2022-10-16T03:40:22.406Z,1.50
2022-10-16T03:42:51.318Z,1.00
2022-10-16T03:45:19.586Z,3.63
2022-10-16T03:47:48.989Z,1.30
2022-10-16T03:50:17.373Z,2.80
2022-10-16T03:52:45.863Z,3.20
2022-10-16T03:55:15.643Z,1.90
2022-10-16T03:57:48.981Z,1.70
2022-10-16T04:00:18.149Z,1.20
2022-10-16T04:05:19.597Z,1.77
2022-10-16T04:07:47.801Z,1.97
2022-10-16T04:10:18.253Z,3.37
2022-10-16T04:12:46.569Z,3.70
2022-10-16T04:15:14.958Z,0.94
2022-10-16T04:17:43.057Z,1.73
2022-10-16T04:20:11.545Z,1.20
2022-10-16T04:22:40.101Z,1.97
2022-10-16T04:25:09.417Z,1.80
2022-10-16T04:27:42.223Z,2.80
2022-10-16T04:30:13.808Z,3.07
2022-10-16T04:32:41.980Z,2.27
2022-10-16T04:35:11.139Z,2.10
2022-10-16T04:37:39.482Z,4.87
2022-10-16T04:40:08.941Z,1.50
2022-10-16T04:42:38.548Z,3.50
2022-10-16T04:45:12.047Z,3.23
2022-10-16T04:47:43.589Z,2.30
2022-10-16T04:50:11.782Z,4.00
2022-10-16T04:52:40.216Z,3.80
2022-10-16T04:55:09.616Z,1.73
2022-10-16T04:57:39.495Z,6.60
2022-10-16T05:00:09.949Z,2.23
2022-10-16T05:02:39.001Z,1.40
2022-10-16T05:05:08.704Z,2.70
2022-10-16T05:07:37.537Z,3.77
2022-10-16T05:10:06.467Z,1.77
2022-10-16T05:12:35.715Z,1.20
2022-10-16T05:15:07.368Z,3.10
2022-10-16T05:17:37.350Z,2.67
2022-10-16T05:20:09.362Z,2.50
2022-10-16T05:22:38.161Z,3.77
2022-10-16T05:25:07.213Z,5.27
2022-10-16T05:27:35.600Z,2.10
2022-10-16T05:30:08.567Z,4.60
2022-10-16T05:32:38.102Z,3.83
2022-10-16T05:35:10.147Z,1.67
2022-10-16T05:37:41.194Z,1.33
2022-10-16T05:40:11.043Z,1.70
2022-10-16T05:42:39.426Z,3.27
2022-10-16T05:45:11.983Z,1.40
2022-10-16T05:47:40.990Z,5.67
2022-10-16T05:50:10.834Z,3.57
2022-10-16T05:52:38.958Z,2.47
2022-10-16T05:55:12.862Z,6.62
2022-10-16T05:57:40.924Z,1.30
2022-10-16T06:00:12.375Z,2.17
2022-10-16T06:02:43.596Z,2.67
2022-10-16T06:05:11.715Z,2.53
2022-10-16T06:07:40.314Z,4.17
2022-10-16T06:10:10.196Z,1.73
2022-10-16T06:12:38.753Z,5.50
2022-10-16T06:15:08.302Z,2.70
2022-10-16T06:17:37.749Z,1.87
2022-10-16T06:20:07.362Z,3.23
2022-10-16T06:22:35.487Z,4.67
2022-10-16T06:25:04.485Z,2.40
2022-10-16T06:27:32.597Z,6.37
2022-10-16T06:30:01.596Z,1.47
2022-10-16T06:32:30.017Z,4.87
2022-10-16T06:35:00.359Z,2.20
2022-10-16T06:37:29.986Z,2.77
2022-10-16T06:39:58.277Z,4.70
2022-10-16T06:42:26.642Z,9.10
2022-10-16T06:44:55.791Z,5.33
2022-10-16T06:47:24.060Z,3.87
2022-10-16T06:49:54.353Z,6.80
2022-10-16T06:52:24.321Z,3.80
2022-10-16T06:54:53.687Z,6.43
2022-10-16T06:57:21.794Z,5.83
2022-10-16T06:59:54.523Z,11.13
2022-10-16T07:02:23.891Z,6.13
2022-10-16T07:04:52.717Z,4.40
2022-10-16T07:07:20.809Z,6.33
2022-10-16T07:09:50.974Z,4.90
2022-10-16T07:12:19.205Z,4.87
2022-10-16T07:14:47.700Z,7.73
2022-10-16T07:17:15.751Z,3.43
2022-10-16T07:19:44.046Z,10.47
2022-10-16T07:22:12.500Z,6.37
2022-10-16T07:24:41.003Z,5.63
2022-10-16T07:27:10.568Z,10.33
2022-10-16T07:29:39.390Z,5.13
2022-10-16T07:32:07.807Z,5.23
2022-10-16T07:34:36.184Z,5.03
2022-10-16T07:37:04.506Z,3.60
2022-10-16T07:39:32.723Z,2.47
2022-10-16T07:42:01.053Z,2.53
2022-10-16T07:44:30.777Z,4.30
2022-10-16T07:46:58.843Z,1.87
2022-10-16T07:49:27.548Z,1.90
2022-10-16T07:51:55.631Z,1.75
2022-10-16T07:54:24.328Z,2.97
2022-10-16T07:56:52.386Z,3.57
2022-10-16T07:59:20.955Z,1.83
2022-10-16T08:01:51.914Z,2.35
2022-10-16T08:04:20.253Z,1.98
2022-10-16T08:06:49.421Z,4.63
2022-10-16T08:09:17.478Z,4.88
2022-10-16T08:11:45.387Z,2.45
2022-10-16T08:14:14.278Z,6.50
2022-10-16T08:16:42.337Z,1.90
2022-10-16T08:19:12.356Z,4.40
2022-10-16T08:21:40.440Z,6.05
2022-10-16T08:24:09.571Z,3.25
2022-10-16T08:26:37.649Z,2.90
2022-10-16T08:29:05.865Z,3.72
2022-10-16T08:31:34.183Z,1.85
2022-10-16T08:34:03.100Z,2.38
2022-10-16T08:36:32.628Z,2.90
2022-10-16T08:39:00.743Z,2.25
2022-10-16T08:42:13.212Z,2.63
2022-10-16T08:45:18.928Z,2.22
2022-10-16T08:48:02.424Z,1.88
2022-10-16T08:50:35.365Z,1.70
2022-10-16T08:53:08.408Z,3.90
2022-10-16T08:55:45.046Z,2.92
2022-10-16T08:58:17.106Z,2.55
2022-10-16T09:00:49.271Z,1.98
2022-10-16T09:03:35.481Z,2.63
2022-10-16T09:06:20.322Z,1.75
2022-10-16T09:09:07.310Z,1.75
2022-10-16T09:11:48.957Z,3.50
2022-10-16T09:14:42.586Z,1.48
2022-10-16T09:17:39.316Z,2.80
2022-10-16T09:20:26.133Z,2.50
2022-10-16T09:23:12.625Z,2.10
2022-10-16T09:25:46.234Z,3.10
2022-10-16T09:28:14.589Z,3.80
2022-10-16T09:30:42.956Z,4.15
2022-10-16T09:33:13.953Z,1.98
2022-10-16T09:35:45.442Z,1.67
2022-10-16T09:38:25.815Z,2.22
2022-10-16T09:41:02.484Z,0.98
2022-10-16T09:43:41.284Z,1.20
2022-10-16T09:46:23.263Z,3.25
2022-10-16T09:48:56.237Z,2.60
2022-10-16T09:51:27.789Z,4.40
2022-10-16T09:54:02.985Z,7.43
2022-10-16T09:56:36.597Z,1.73
2022-10-16T09:59:14.895Z,3.78
2022-10-16T10:01:48.480Z,1.80
2022-10-16T10:04:17.055Z,4.85
2022-10-16T10:06:48.829Z,1.15
2022-10-16T10:09:22.484Z,3.72
2022-10-16T10:11:56.190Z,4.90
2022-10-16T10:14:37.490Z,2.67
2022-10-16T10:17:17.948Z,2.67
2022-10-16T10:19:53.563Z,1.98
2022-10-16T10:22:29.217Z,5.68
2022-10-16T10:25:21.759Z,3.22
2022-10-16T10:28:08.855Z,2.97
2022-10-16T10:30:46.745Z,8.57
2022-10-16T10:33:30.924Z,2.25
2022-10-16T10:36:14.636Z,3.95
2022-10-16T10:38:52.688Z,2.47
2022-10-16T10:42:09.848Z,3.35
2022-10-16T10:45:02.040Z,2.40
2022-10-16T10:47:48.871Z,4.70
2022-10-16T10:50:28.613Z,3.53
2022-10-16T10:53:11.376Z,3.55
2022-10-16T10:55:46.580Z,4.10
2022-10-16T10:58:57.466Z,1.33
2022-10-16T11:01:41.275Z,2.42
2022-10-16T11:05:02.349Z,1.30
2022-10-16T11:07:36.753Z,4.95
2022-10-16T11:10:16.308Z,1.38
2022-10-16T11:12:50.379Z,2.70
2022-10-16T11:15:27.197Z,1.20
2022-10-16T11:18:08.349Z,2.70
2022-10-16T11:20:44.234Z,5.47
2022-10-16T11:23:20.988Z,3.05
2022-10-16T11:25:51.810Z,4.78
2022-10-16T11:28:29.327Z,2.83
2022-10-16T11:31:09.586Z,6.30
2022-10-16T11:33:45.421Z,2.45
2022-10-16T11:36:23.627Z,3.40
2022-10-16T11:39:01.201Z,3.45
2022-10-16T11:41:36.792Z,1.52
2022-10-16T11:44:36.559Z,3.60
2022-10-16T11:47:53.906Z,3.13
2022-10-16T11:50:26.897Z,4.00
2022-10-16T11:53:04.509Z,4.25
2022-10-16T11:55:41.766Z,4.97
2022-10-16T11:58:29.479Z,1.27
2022-10-16T12:01:12.912Z,1.73
2022-10-16T12:03:51.508Z,2.42
2022-10-16T12:06:36.060Z,2.67
2022-10-16T12:09:05.956Z,4.30
2022-10-16T12:11:38.505Z,4.07
2022-10-16T12:14:24.970Z,2.45
2022-10-16T12:16:56.870Z,3.90
2022-10-16T12:19:27.762Z,1.42
2022-10-16T12:22:00.781Z,3.15
2022-10-16T12:24:41.959Z,1.83
2022-10-16T12:27:32.025Z,1.38
2022-10-16T12:30:03.717Z,1.63
2022-10-16T12:32:51.775Z,1.73
2022-10-16T12:35:24.764Z,1.85
2022-10-16T12:37:55.419Z,2.15
2022-10-16T12:40:32.386Z,2.22
2022-10-16T12:43:01.326Z,4.88
2022-10-16T12:45:33.262Z,2.47
2022-10-16T12:48:03.907Z,4.10
2022-10-16T12:50:38.023Z,8.20
2022-10-16T12:53:22.470Z,3.53
2022-10-16T12:56:09.025Z,3.80
2022-10-16T12:59:08.654Z,5.95
2022-10-16T13:01:56.668Z,6.43
2022-10-16T13:04:51.790Z,4.03
2022-10-16T13:07:50.546Z,3.10
2022-10-16T13:10:30.542Z,2.17
2022-10-16T13:13:24.594Z,2.90
2022-10-16T13:16:11.131Z,1.73
2022-10-16T13:18:57.501Z,2.90
2022-10-16T13:21:41.624Z,5.53
2022-10-16T13:24:28.696Z,7.82
2022-10-16T13:27:09.425Z,5.72
2022-10-16T13:29:38.127Z,4.55
2022-10-16T13:32:13.907Z,3.45
2022-10-16T13:34:47.925Z,10.25
2022-10-16T13:37:22.682Z,3.55
2022-10-16T13:39:51.782Z,3.40
2022-10-16T13:42:30.089Z,2.17
2022-10-16T13:44:58.986Z,8.13
2022-10-16T13:47:30.302Z,4.40
2022-10-16T13:50:04.210Z,3.63
2022-10-16T13:52:32.828Z,4.65
2022-10-16T13:55:02.337Z,4.63
2022-10-16T13:57:32.540Z,8.32
2022-10-16T14:00:00.848Z,4.95
2022-10-16T14:02:36.078Z,3.65
2022-10-16T14:05:06.451Z,4.30
2022-10-16T14:07:36.686Z,4.25
2022-10-16T14:10:09.467Z,6.38
2022-10-16T14:12:39.005Z,6.55
2022-10-16T14:15:19.638Z,4.20
2022-10-16T14:17:53.631Z,5.93
2022-10-16T14:20:28.494Z,4.80
2022-10-16T14:23:06.724Z,1.85
2022-10-16T14:25:35.577Z,4.13
2022-10-16T14:28:18.899Z,7.95
2022-10-16T14:30:56.555Z,8.60
2022-10-16T14:33:34.596Z,10.80
2022-10-16T14:36:07.837Z,4.45
2022-10-16T14:38:36.481Z,4.85
2022-10-16T14:41:06.702Z,3.47
2022-10-16T14:43:41.362Z,6.40
2022-10-16T14:46:16.288Z,6.10
2022-10-16T14:48:48.311Z,9.18
2022-10-16T14:51:18.346Z,7.95
2022-10-16T14:53:46.880Z,19.00
2022-10-16T14:56:21.393Z,7.32
2022-10-16T14:58:54.011Z,9.73
2022-10-16T15:01:22.655Z,5.40
2022-10-16T15:03:53.659Z,4.80
2022-10-16T15:06:22.087Z,3.15
2022-10-16T15:08:50.749Z,5.45
2022-10-16T15:11:22.115Z,7.55
2022-10-16T15:13:51.573Z,3.80
2022-10-16T15:16:20.405Z,3.67
2022-10-16T15:18:48.677Z,7.22
2022-10-16T15:21:27.766Z,4.07
2022-10-16T15:23:57.757Z,2.70
2022-10-16T15:26:26.992Z,4.45
2022-10-16T15:28:57.950Z,4.40
2022-10-16T15:31:26.742Z,6.60
2022-10-16T15:33:59.328Z,2.55
2022-10-16T15:36:29.577Z,2.78
2022-10-16T15:38:59.169Z,2.78
2022-10-16T15:41:27.628Z,3.03
2022-10-16T15:43:57.906Z,4.28
2022-10-16T15:46:27.516Z,2.50
2022-10-16T15:49:00.853Z,3.97
2022-10-16T15:51:30.717Z,8.63
2022-10-16T15:53:59.922Z,3.40
2022-10-16T15:56:29.388Z,4.55
2022-10-16T15:58:59.246Z,2.47
2022-10-16T16:01:28.656Z,4.80
2022-10-16T16:03:57.467Z,3.60
2022-10-16T16:06:25.737Z,3.15
2022-10-16T16:08:54.810Z,5.53
2022-10-16T16:11:24.601Z,3.38
2022-10-16T16:13:53.369Z,2.95
2022-10-16T16:16:22.812Z,4.97
2022-10-16T16:18:55.530Z,4.38
2022-10-16T16:21:24.186Z,7.65
2022-10-16T16:23:52.580Z,12.02
2022-10-16T16:26:27.624Z,3.80
2022-10-16T16:28:57.931Z,6.72
2022-10-16T16:31:29.552Z,5.90
2022-10-16T16:33:58.845Z,6.47
2022-10-16T16:36:27.927Z,4.43
2022-10-16T16:38:56.020Z,4.47
2022-10-16T16:41:27.526Z,2.95
2022-10-16T16:43:56.639Z,8.32
2022-10-16T16:46:25.210Z,6.60
2022-10-16T16:48:56.424Z,5.20
2022-10-16T16:51:25.127Z,6.78
2022-10-16T16:53:56.044Z,5.18
2022-10-16T16:56:26.297Z,6.85
2022-10-16T16:58:56.824Z,11.05
2022-10-16T17:01:28.658Z,6.70
2022-10-16T17:04:00.412Z,6.13
2022-10-16T17:06:31.232Z,7.78
2022-10-16T17:09:03.624Z,6.07
2022-10-16T17:11:32.671Z,5.20
2022-10-16T17:14:03.583Z,7.18
2022-10-16T17:16:36.242Z,6.00
2022-10-16T17:19:09.557Z,6.82
2022-10-16T17:21:39.062Z,6.38
2022-10-16T17:24:08.224Z,11.52
2022-10-16T17:26:38.273Z,6.10
2022-10-16T17:29:07.249Z,5.38
2022-10-16T17:31:38.373Z,6.13
2022-10-16T17:34:12.095Z,5.47
2022-10-16T17:36:43.960Z,6.80
2022-10-16T17:39:18.395Z,8.73
2022-10-16T17:41:47.155Z,6.88
2022-10-16T17:44:20.550Z,6.15
2022-10-16T17:46:50.491Z,5.55
2022-10-16T17:49:22.069Z,9.30
2022-10-16T17:51:52.324Z,8.93
2022-10-16T17:54:21.934Z,9.85
2022-10-16T17:56:50.557Z,12.83
2022-10-16T17:59:22.861Z,9.52
2022-10-16T18:01:52.788Z,10.57
2022-10-16T18:04:22.368Z,8.30
2022-10-16T18:06:50.476Z,7.57
2022-10-16T18:09:21.089Z,5.97
2022-10-16T18:11:52.761Z,7.20
2022-10-16T18:14:20.936Z,9.17
2022-10-16T18:19:25.130Z,7.03
2022-10-16T18:21:55.766Z,10.20
2022-10-16T18:24:25.503Z,14.47
2022-10-16T18:26:57.501Z,7.80
2022-10-16T18:29:28.128Z,10.07
2022-10-16T18:31:57.683Z,11.60
2022-10-16T18:34:27.905Z,9.10
2022-10-16T18:36:57.465Z,11.07
2022-10-16T18:39:25.942Z,10.83
2022-10-16T18:41:59.469Z,9.90
2022-10-16T18:44:28.659Z,11.13
2022-10-16T18:46:59.039Z,10.57
2022-10-16T18:49:29.573Z,9.43
2022-10-16T18:51:58.594Z,9.43
2022-10-16T18:54:26.609Z,11.40
2022-10-16T18:56:55.219Z,9.30
2022-10-16T18:59:26.181Z,10.30
2022-10-16T19:01:55.154Z,10.37
2022-10-16T19:04:23.936Z,20.43
2022-10-16T19:06:55.996Z,14.40
2022-10-16T19:09:25.998Z,13.90
2022-10-16T19:11:54.716Z,21.43
2022-10-16T19:14:23.195Z,10.87
2022-10-16T19:16:51.345Z,11.73
2022-10-16T19:19:20.330Z,12.80
2022-10-16T19:21:52.746Z,8.73
2022-10-16T19:24:22.185Z,8.83
2022-10-16T19:26:50.302Z,20.13
2022-10-16T19:29:18.778Z,11.90
2022-10-16T19:31:48.938Z,10.27
2022-10-16T19:34:18.283Z,12.00
2022-10-16T19:36:46.638Z,10.73
2022-10-16T19:39:18.047Z,8.67
2022-10-16T19:41:48.271Z,8.27
2022-10-16T19:44:18.544Z,7.53
2022-10-16T19:46:48.793Z,6.73
2022-10-16T19:49:21.644Z,5.70
2022-10-16T19:51:54.411Z,5.70
2022-10-16T19:54:22.869Z,7.90
2022-10-16T19:56:52.323Z,3.47
2022-10-16T19:59:20.508Z,5.10
2022-10-16T20:01:49.192Z,5.50
2022-10-16T20:04:17.622Z,5.03
2022-10-16T20:06:46.147Z,7.43
2022-10-16T20:09:14.835Z,8.43
2022-10-16T20:11:43.151Z,8.30
2022-10-16T20:14:12.786Z,8.60
2022-10-16T20:16:41.381Z,9.67
2022-10-16T20:19:09.504Z,15.83
2022-10-16T20:21:38.952Z,24.90
2022-10-16T20:24:08.575Z,28.93
2022-10-16T20:26:38.175Z,26.53
2022-10-16T20:29:07.327Z,8.77
2022-10-16T20:31:37.447Z,11.07
2022-10-16T20:34:11.364Z,12.13
2022-10-16T20:36:43.836Z,8.13
2022-10-16T20:39:14.687Z,5.90
2022-10-16T20:41:42.918Z,6.10
2022-10-16T20:44:11.022Z,8.87
2022-10-16T20:46:41.618Z,6.27
2022-10-16T20:49:11.634Z,9.07
2022-10-16T20:51:51.097Z,5.37
2022-10-16T20:54:19.393Z,5.20
2022-10-16T20:56:47.338Z,2.60
2022-10-16T20:59:16.044Z,10.10
2022-10-16T21:01:45.485Z,2.30
2022-10-16T21:04:14.280Z,3.30
2022-10-16T21:06:42.764Z,3.90
2022-10-16T21:09:11.374Z,1.97
2022-10-16T21:11:40.121Z,3.67
2022-10-16T21:14:10.071Z,4.07
2022-10-16T21:16:38.620Z,8.45
2022-10-16T21:19:09.587Z,3.40
2022-10-16T21:21:40.198Z,4.67
2022-10-16T21:24:12.286Z,3.07
2022-10-16T21:26:43.531Z,3.63
2022-10-16T21:29:12.181Z,4.33
2022-10-16T21:31:40.916Z,6.60
2022-10-16T21:34:11.393Z,6.27
2022-10-16T21:36:43.107Z,4.30
2022-10-16T21:39:15.837Z,5.03
2022-10-16T21:41:46.973Z,2.50
2022-10-16T21:44:16.664Z,3.90
2022-10-16T21:46:47.482Z,6.43
2022-10-16T21:49:20.306Z,4.03
2022-10-16T21:51:51.990Z,2.70
2022-10-16T21:54:23.977Z,1.90
2022-10-16T21:56:53.318Z,2.87
2022-10-16T21:59:22.384Z,1.80
2022-10-16T22:01:54.060Z,6.53
2022-10-16T22:04:23.657Z,2.97
2022-10-16T22:06:52.421Z,4.70
2022-10-16T22:09:20.522Z,4.90
2022-10-16T22:11:50.486Z,3.47
2022-10-16T22:14:21.571Z,3.33
2022-10-16T22:16:51.376Z,6.27
2022-10-16T22:19:24.334Z,2.50
2022-10-16T22:21:57.143Z,2.00
2022-10-16T22:24:26.196Z,3.47
2022-10-16T22:26:54.857Z,5.93
2022-10-16T22:29:23.608Z,3.67
2022-10-16T22:31:54.250Z,5.70
2022-10-16T22:34:23.655Z,5.90
2022-10-16T22:36:52.410Z,2.77
2022-10-16T22:39:20.953Z,3.07
2022-10-16T22:41:49.430Z,3.17
2022-10-16T22:44:17.512Z,6.50
2022-10-16T22:46:45.720Z,3.63
2022-10-16T22:49:13.765Z,2.87
2022-10-16T22:51:43.718Z,3.87
2022-10-16T22:54:12.109Z,2.70
2022-10-16T22:56:40.379Z,2.90
2022-10-16T22:59:09.012Z,6.10
2022-10-16T23:01:40.929Z,5.50
2022-10-16T23:04:10.338Z,6.90
2022-10-16T23:06:38.610Z,4.60
2022-10-16T23:09:08.808Z,8.87
2022-10-16T23:11:36.847Z,6.60
2022-10-16T23:14:05.635Z,10.50
2022-10-16T23:16:33.726Z,7.00
2022-10-16T23:19:01.865Z,8.27
2022-10-16T23:21:30.113Z,3.30
2022-10-16T23:23:58.182Z,4.17
2022-10-16T23:26:29.162Z,3.57
2022-10-16T23:28:59.369Z,5.30
2022-10-16T23:31:30.069Z,3.97
2022-10-16T23:33:59.706Z,6.50
2022-10-16T23:36:27.849Z,10.77
2022-10-16T23:38:56.726Z,2.20
2022-10-16T23:41:25.490Z,2.77
2022-10-16T23:43:55.178Z,4.57
2022-10-16T23:48:56.510Z,2.97
2022-10-16T23:51:24.677Z,2.77
2022-10-16T23:53:54.317Z,5.40
